Woodstock, Ohio
Current Conditions -  °F | °C
As of 11:13 PM on Tuesday 27 Jan 2015 (Local Time) from KMRT Reporting Station
Clear Clear  
Wind Chill:   Ceiling: Unl
Heat Index:   Visibility: 7mi
Dew Point: -2°   Wind: 3mph
Humidity: 83%   Direction: 270°W
Pressure: 30.2"   Gusts: NA
Location:  40.17°N, 83.53°W
Report Text: KMRT 280413Z AUTO 27003KT 7SM CLR M17/M19 A3020 RMK AO2 T11681190
Loading
Personal Weather Stations






























Interactive Weather Map New forecast layout! Learn more

10-Day Weather Forecast

Advertisements
Track Severe Weather on mobile